Time;durP1;ratioP1;P1;durP2;ratioP2;P2;SDS_P1;SDS_P2;PMS_P1;PMS_P2;Temp;Humidity;BMP_temperature;BMP_pressure;BME280_temperature;BME280_humidity;BME280_pressure;Samples;Min_cycle;Max_cycle;Signal;HPM_P1;HPM_P2
2023/01/28 00:01:52;;;;;;;35.20;17.80;;;;;;;0.04;65.24;101004.90;107696;1259;72458;-75
2023/01/28 00:04:19;;;;;;;29.00;17.80;;;;;;;-0.06;65.13;101003.81;107697;1259;60387;-75
2023/01/28 00:06:46;;;;;;;30.90;18.00;;;;;;;-0.13;65.35;101001.30;107729;1259;59444;-75
2023/01/28 00:09:13;;;;;;;34.50;20.60;;;;;;;-0.16;65.54;101002.52;107780;1259;72900;-76
2023/01/28 00:11:41;;;;;;;33.10;19.40;;;;;;;-0.18;65.73;101001.10;107683;1263;72615;-76
2023/01/28 00:14:12;;;;;;;35.90;18.80;;;;;;;-0.22;65.97;100996.50;107690;1258;72111;-75
2023/01/28 00:16:42;;;;;;;31.90;18.20;;;;;;;-0.25;65.94;101000.50;107678;1258;60354;-76
2023/01/28 00:19:09;;;;;;;35.60;20.40;;;;;;;-0.26;66.15;100999.52;107762;1259;60590;-75
2023/01/28 00:21:37;;;;;;;34.40;20.10;;;;;;;-0.29;66.02;100997.99;107778;1259;71801;-74
2023/01/28 00:24:05;;;;;;;36.40;21.70;;;;;;;-0.32;66.20;100997.81;107935;1258;73284;-75
2023/01/28 00:26:32;;;;;;;36.50;20.60;;;;;;;-0.33;66.55;100995.80;107741;1259;71917;-74
2023/01/28 00:29:00;;;;;;;38.60;22.10;;;;;;;-0.32;66.69;100995.88;107654;1259;61203;-74
2023/01/28 00:31:27;;;;;;;37.60;21.60;;;;;;;-0.30;66.68;100994.79;107729;1259;60541;-76
2023/01/28 00:33:55;;;;;;;38.00;22.30;;;;;;;-0.27;66.80;100997.52;107823;1258;74287;-74
2023/01/28 00:36:24;;;;;;;38.30;22.50;;;;;;;-0.23;66.79;101000.48;107728;1258;72940;-74
2023/01/28 00:38:52;;;;;;;44.30;26.10;;;;;;;-0.20;66.83;100998.36;108001;1259;70617;-74
2023/01/28 00:41:20;;;;;;;38.40;21.10;;;;;;;-0.15;66.86;100997.80;107716;1259;60877;-74
2023/01/28 00:43:50;;;;;;;47.40;27.70;;;;;;;-0.07;66.85;100995.18;107938;1259;60271;-74
2023/01/28 00:46:17;;;;;;;46.70;26.40;;;;;;;-0.02;66.88;100997.90;108059;1256;71758;-75
2023/01/28 00:48:44;;;;;;;47.40;26.60;;;;;;;0.04;66.67;100994.48;107968;1255;71785;-74
2023/01/28 00:51:13;;;;;;;45.80;25.40;;;;;;;0.07;66.62;100998.61;107812;1256;71518;-74
2023/01/28 00:53:40;;;;;;;41.80;23.80;;;;;;;0.09;66.52;101002.73;107945;1256;61258;-74
2023/01/28 00:56:08;;;;;;;39.90;22.60;;;;;;;0.01;66.09;101000.50;107876;1256;59736;-74
2023/01/28 00:58:35;;;;;;;34.60;19.90;;;;;;;-0.10;65.91;100998.05;108033;1256;74044;-74
2023/01/28 01:01:07;;;;;;;33.90;19.30;;;;;;;-0.21;65.97;100996.92;107889;1256;71730;-73
2023/01/28 01:03:35;;;;;;;34.20;18.70;;;;;;;-0.26;66.33;100999.72;107992;1256;76044;-74
2023/01/28 01:06:03;;;;;;;39.20;21.30;;;;;;;-0.27;66.23;100999.45;107954;1256;61227;-75
2023/01/28 01:08:38;;;;;;;33.70;19.10;;;;;;;-0.27;66.28;101001.42;108034;1256;60423;-75
2023/01/28 01:11:06;;;;;;;35.50;20.00;;;;;;;-0.27;66.33;101000.02;108045;1256;71826;-75
2023/01/28 01:13:36;;;;;;;39.30;22.70;;;;;;;-0.26;66.50;100997.42;107983;1256;71998;-74
2023/01/28 01:16:16;;;;;;;39.10;21.70;;;;;;;-0.22;66.55;100997.16;107950;1256;73036;-74
2023/01/28 01:18:43;;;;;;;40.00;22.00;;;;;;;-0.18;66.29;100997.17;107933;1256;62372;-75
2023/01/28 01:21:13;;;;;;;38.20;21.70;;;;;;;-0.15;66.52;100995.69;107930;1258;61219;-74
2023/01/28 01:23:40;;;;;;;38.60;22.90;;;;;;;-0.10;66.53;100992.48;107947;1255;74521;-75
2023/01/28 01:26:07;;;;;;;41.50;22.50;;;;;;;-0.11;66.40;100990.02;107900;1256;72360;-74
2023/01/28 01:28:35;;;;;;;38.50;21.40;;;;;;;-0.12;66.35;100989.37;107904;1256;72658;-75
2023/01/28 01:31:07;;;;;;;36.40;21.50;;;;;;;-0.10;66.23;100994.64;107965;1256;60640;-75
2023/01/28 01:33:34;;;;;;;39.60;22.40;;;;;;;-0.07;66.29;100991.07;108206;1256;61275;-75
2023/01/28 01:36:01;;;;;;;37.20;21.70;;;;;;;-0.04;66.29;100992.66;107943;1257;72401;-74
2023/01/28 01:38:29;;;;;;;33.90;20.10;;;;;;;-0.03;66.11;100992.06;107789;1256;73119;-75
2023/01/28 01:40:59;;;;;;;34.70;21.00;;;;;;;-0.04;66.12;100991.31;107841;1256;72455;-75
2023/01/28 01:44:00;;;;;;;32.70;19.10;;;;;;;-0.07;66.02;100993.01;108010;1256;60281;-75
2023/01/28 01:46:36;;;;;;;33.10;18.20;;;;;;;-0.09;65.80;100992.41;107936;1256;60864;-75
2023/01/28 01:53:10;;;;;;;31.40;18.00;;;;;;;-0.26;65.59;100985.91;107941;1257;72117;-75
2023/01/28 01:55:39;;;;;;;33.10;19.90;;;;;;;-0.29;65.71;100976.80;107860;1256;71859;-75
2023/01/28 01:58:08;;;;;;;33.40;18.40;;;;;;;-0.34;65.78;100978.40;107909;1260;60872;-72
2023/01/28 02:00:39;;;;;;;33.40;19.20;;;;;;;-0.35;65.91;100973.27;107975;1256;60583;-74
2023/01/28 02:03:09;;;;;;;35.80;20.70;;;;;;;-0.36;65.80;100971.28;107891;1257;75002;-76
2023/01/28 02:05:37;;;;;;;33.40;19.50;;;;;;;-0.37;66.09;100970.59;107748;1256;72880;-76
2023/01/28 02:08:22;;;;;;;36.30;20.60;;;;;;;-0.38;66.09;100967.35;107869;1256;70737;-76
2023/01/28 02:10:53;;;;;;;36.00;20.00;;;;;;;-0.38;66.11;100963.48;107993;1258;60699;-75
2023/01/28 02:13:21;;;;;;;31.50;19.50;;;;;;;-0.35;66.14;100963.54;107894;1257;60231;-74
2023/01/28 02:15:50;;;;;;;34.10;21.00;;;;;;;-0.34;66.38;100960.44;108028;1257;73464;-75
2023/01/28 02:18:16;;;;;;;36.40;20.00;;;;;;;-0.36;66.20;100966.89;107629;1256;73223;-75
2023/01/28 02:20:56;;;;;;;34.50;19.20;;;;;;;-0.38;66.17;100967.67;107960;1256;72665;-73
2023/01/28 02:24:01;;;;;;;29.70;18.20;;;;;;;-0.36;66.09;100969.95;107963;1256;60880;-77
2023/01/28 02:26:59;;;;;;;29.90;17.40;;;;;;;-0.35;66.01;100967.77;107950;1256;61425;-76
2023/01/28 02:29:29;;;;;;;39.10;22.80;;;;;;;-0.33;66.14;100969.19;107898;1256;73101;-74
2023/01/28 02:32:14;;;;;;;34.80;20.70;;;;;;;-0.30;65.94;100970.63;108056;1256;72746;-74
2023/01/28 02:34:47;;;;;;;33.30;19.10;;;;;;;-0.32;65.96;100969.40;107951;1257;73868;-74
2023/01/28 02:37:38;;;;;;;33.80;19.80;;;;;;;-0.32;65.84;100972.46;107998;1256;60438;-76
2023/01/28 02:40:10;;;;;;;35.90;19.00;;;;;;;-0.37;65.88;100969.98;107824;1256;60523;-76
2023/01/28 02:42:39;;;;;;;34.40;18.80;;;;;;;-0.41;66.01;100964.73;107961;1256;74054;-76
2023/01/28 02:45:20;;;;;;;36.40;20.50;;;;;;;-0.45;65.86;100963.44;107820;1256;73662;-75
2023/01/28 02:47:58;;;;;;;34.90;19.20;;;;;;;-0.45;66.07;100961.73;107775;1256;73962;-74
2023/01/28 02:50:38;;;;;;;32.80;18.90;;;;;;;-0.49;66.22;100962.44;107900;1255;61225;-74
2023/01/28 02:56:07;;;;;;;35.70;20.00;;;;;;;-0.54;66.46;100956.08;107931;1260;72207;-75
2023/01/28 02:58:46;;;;;;;33.60;20.50;;;;;;;-0.54;66.39;100957.39;107942;1256;71257;-75
2023/01/28 03:01:27;;;;;;;33.60;18.90;;;;;;;-0.51;66.64;100960.59;107792;1256;71145;-75
2023/01/28 03:04:09;;;;;;;31.80;18.00;;;;;;;-0.46;66.64;100960.55;107839;1259;60982;-76
2023/01/28 03:06:43;;;;;;;35.70;21.00;;;;;;;-0.45;66.47;100955.52;107855;1257;61631;-76
2023/01/28 03:09:25;;;;;;;32.30;18.90;;;;;;;-0.49;66.64;100953.88;108041;1257;74599;-75
2023/01/28 03:37:18;;;;;;;33.20;18.00;;;;;;;-0.44;66.24;100969.27;107821;1255;75047;-75
2023/01/28 03:40:06;;;;;;;33.00;19.10;;;;;;;-0.42;66.15;100963.73;107988;1256;73225;-75
2023/01/28 03:42:35;;;;;;;33.60;18.10;;;;;;;-0.39;66.11;100961.69;107825;1256;72967;-75
2023/01/28 03:45:09;;;;;;;33.10;19.00;;;;;;;-0.38;66.00;100960.71;107927;1256;61707;-76
2023/01/28 03:47:39;;;;;;;29.10;17.60;;;;;;;-0.35;66.12;100957.40;107831;1256;60326;-75
2023/01/28 03:50:08;;;;;;;33.50;19.30;;;;;;;-0.35;65.87;100955.39;107911;1256;73445;-76
2023/01/28 03:52:43;;;;;;;28.50;17.10;;;;;;;-0.34;65.77;100954.34;107804;1260;71856;-75
2023/01/28 03:55:29;;;;;;;32.30;18.90;;;;;;;-0.35;65.87;100955.50;107860;1256;72001;-75
2023/01/28 04:10:42;;;;;;;29.80;19.30;;;;;;;-0.16;65.81;100969.56;105794;1281;615472;-75
2023/01/28 04:13:18;;;;;;;31.90;19.90;;;;;;;0.29;64.96;100966.82;107375;1265;141923;-75
2023/01/28 04:15:45;;;;;;;35.70;20.10;;;;;;;0.29;64.82;100968.20;107423;1266;60015;-74
2023/01/28 04:18:14;;;;;;;33.90;20.40;;;;;;;0.28;64.57;100973.52;107840;1258;71670;-75
2023/01/28 04:20:42;;;;;;;27.60;18.10;;;;;;;0.30;64.74;100974.77;107980;1260;71788;-75
2023/01/28 04:23:09;;;;;;;31.80;19.60;;;;;;;0.33;64.80;100976.38;108049;1256;70675;-74
2023/01/28 04:25:38;;;;;;;29.60;17.60;;;;;;;0.29;64.60;100975.60;107855;1256;59054;-74
2023/01/28 04:28:08;;;;;;;35.20;19.70;;;;;;;0.23;64.46;100976.56;108072;1256;60266;-74
2023/01/28 04:30:35;;;;;;;33.70;20.00;;;;;;;0.15;64.36;100977.40;107828;1256;73364;-77
2023/01/28 04:33:29;;;;;;;31.70;19.00;;;;;;;0.07;64.16;100982.33;108028;1256;73681;-75
2023/01/28 04:36:15;;;;;;;33.40;19.00;;;;;;;0.01;64.32;100984.41;108047;1256;72794;-75
2023/01/28 04:39:01;;;;;;;32.20;17.20;;;;;;;-0.03;64.45;100988.84;108036;1256;61366;-74
2023/01/28 04:41:38;;;;;;;32.60;19.20;;;;;;;-0.09;64.34;100990.43;108019;1256;59681;-74
2023/01/28 04:44:16;;;;;;;32.30;18.80;;;;;;;-0.13;64.47;100988.42;108010;1256;71967;-74
2023/01/28 04:47:03;;;;;;;31.40;19.20;;;;;;;-0.12;64.38;100989.64;108022;1256;72669;-74
2023/01/28 04:49:41;;;;;;;32.70;20.00;;;;;;;-0.10;64.64;100993.07;108004;1256;72297;-76
2023/01/28 04:52:36;;;;;;;31.50;18.00;;;;;;;-0.09;64.63;100999.55;107763;1256;61394;-74
2023/01/28 04:55:32;;;;;;;34.60;20.30;;;;;;;-0.12;64.60;100998.54;107456;1256;59889;-75
2023/01/28 04:58:01;;;;;;;31.50;19.30;;;;;;;-0.13;64.58;100998.30;108177;1256;72973;-76
2023/01/28 05:00:29;;;;;;;36.90;20.60;;;;;;;-0.13;64.35;100997.61;108138;1254;71611;-75
2023/01/28 05:02:56;;;;;;;27.80;17.60;;;;;;;-0.15;64.63;100994.25;108051;1256;72368;-76
2023/01/28 05:05:26;;;;;;;30.30;18.10;;;;;;;-0.20;64.38;100996.79;108149;1255;60010;-75
2023/01/28 05:08:02;;;;;;;26.20;15.80;;;;;;;-0.23;64.34;100992.22;108214;1256;60276;-75
2023/01/28 05:10:30;;;;;;;29.80;16.80;;;;;;;-0.28;64.30;100987.39;108035;1254;73283;-75
2023/01/28 05:12:57;;;;;;;30.10;18.10;;;;;;;-0.37;64.42;100983.65;108048;1254;73014;-75
2023/01/28 05:15:24;;;;;;;26.30;15.60;;;;;;;-0.40;64.54;100980.88;108035;1254;72841;-75
2023/01/28 05:17:55;;;;;;;31.50;15.20;;;;;;;-0.43;64.57;100983.36;108010;1254;60088;-75
2023/01/28 05:20:22;;;;;;;26.60;16.00;;;;;;;-0.51;64.57;100983.19;107758;1254;60801;-75
2023/01/28 05:22:53;;;;;;;27.90;16.50;;;;;;;-0.59;64.43;100984.77;108346;1256;71906;-75
2023/01/28 05:25:23;;;;;;;29.60;16.70;;;;;;;-0.62;64.72;100987.39;108319;1254;72757;-74
2023/01/28 05:27:50;;;;;;;27.70;16.20;;;;;;;-0.64;64.83;100990.80;108192;1256;71921;-76
2023/01/28 05:30:19;;;;;;;28.80;17.00;;;;;;;-0.65;64.88;100990.84;108078;1257;62356;-75
2023/01/28 05:32:46;;;;;;;27.90;16.70;;;;;;;-0.65;65.09;100987.73;108171;1256;59538;-74
2023/01/28 05:35:19;;;;;;;28.50;16.30;;;;;;;-0.64;65.15;100989.39;108149;1256;72654;-76
2023/01/28 05:37:47;;;;;;;28.10;15.50;;;;;;;-0.69;65.14;100993.77;108025;1254;72005;-75
2023/01/28 05:40:16;;;;;;;30.60;17.30;;;;;;;-0.73;65.31;100994.02;108117;1256;73941;-75
2023/01/28 05:42:44;;;;;;;30.80;17.50;;;;;;;-0.74;65.20;100990.42;108020;1254;60705;-77
2023/01/28 05:45:48;;;;;;;32.50;18.00;;;;;;;-0.72;65.39;100992.19;107467;1262;59868;-75
2023/01/28 05:48:38;;;;;;;32.80;18.60;;;;;;;-0.70;65.49;100994.77;107808;1255;73247;-75
2023/01/28 05:51:17;;;;;;;33.00;18.30;;;;;;;-0.72;65.54;100999.37;108059;1254;73106;-75
2023/01/28 05:53:53;;;;;;;33.10;19.10;;;;;;;-0.73;65.59;100999.40;108169;1257;71390;-75
2023/01/28 05:56:22;;;;;;;36.50;20.70;;;;;;;-0.70;65.67;100995.29;108254;1254;60034;-76
2023/01/28 05:58:49;;;;;;;34.70;17.90;;;;;;;-0.68;65.88;100997.67;108156;1254;60389;-76
2023/01/28 06:01:20;;;;;;;26.00;14.50;;;;;;;-0.66;65.86;100995.09;108032;1257;73825;-76
2023/01/28 06:03:51;;;;;;;35.10;18.30;;;;;;;-0.71;65.96;100993.06;108125;1254;72312;-75
2023/01/28 06:06:18;;;;;;;37.40;19.30;;;;;;;-0.70;65.92;100991.42;108052;1254;71135;-76
2023/01/28 06:08:46;;;;;;;39.40;22.00;;;;;;;-0.69;66.12;100992.19;108075;1255;60177;-75
2023/01/28 06:11:19;;;;;;;38.90;21.90;;;;;;;-0.67;66.11;100988.65;108121;1256;60216;-76
2023/01/28 06:13:47;;;;;;;34.00;19.40;;;;;;;-0.67;66.13;100996.36;108098;1256;72400;-75
2023/01/28 06:16:47;;;;;;;35.10;19.80;;;;;;;-0.70;66.12;101002.27;107694;1256;72294;-75
2023/01/28 06:19:34;;;;;;;38.10;19.80;;;;;;;-0.74;66.16;100998.52;107982;1256;73053;-75
2023/01/28 06:22:04;;;;;;;37.10;20.80;;;;;;;-0.77;66.37;100995.04;108021;1255;60650;-74
2023/01/28 06:24:32;;;;;;;37.60;19.90;;;;;;;-0.75;66.42;100996.90;108168;1253;59692;-75
2023/01/28 06:26:59;;;;;;;36.60;19.30;;;;;;;-0.72;66.25;101001.83;108006;1255;74379;-75
2023/01/28 06:29:26;;;;;;;38.70;21.80;;;;;;;-0.71;66.43;101005.20;108025;1256;71778;-75
2023/01/28 06:31:53;;;;;;;40.10;21.80;;;;;;;-0.69;66.50;101009.19;108017;1255;73679;-75
2023/01/28 06:34:20;;;;;;;41.30;23.00;;;;;;;-0.65;66.51;101007.89;108109;1255;60999;-75
2023/01/28 06:36:47;;;;;;;40.90;21.30;;;;;;;-0.61;66.64;101012.41;108160;1256;59621;-75
2023/01/28 06:39:14;;;;;;;40.40;20.70;;;;;;;-0.62;66.43;101010.83;108140;1258;72193;-76
2023/01/28 06:41:41;;;;;;;40.80;21.30;;;;;;;-0.69;66.54;101006.76;108090;1256;73144;-75
2023/01/28 06:44:10;;;;;;;38.40;21.00;;;;;;;-0.80;66.56;100996.78;108065;1258;72978;-74
2023/01/28 06:46:38;;;;;;;42.00;21.90;;;;;;;-0.87;66.70;101003.96;108050;1256;59409;-74
2023/01/28 06:49:05;;;;;;;39.80;20.70;;;;;;;-0.89;66.78;101010.70;108078;1255;60199;-74
2023/01/28 06:51:32;;;;;;;44.50;21.70;;;;;;;-0.93;66.77;101015.37;108050;1257;72371;-74
2023/01/28 06:53:59;;;;;;;37.40;21.10;;;;;;;-1.00;66.91;101020.44;108130;1258;73674;-75
2023/01/28 06:56:26;;;;;;;35.40;19.50;;;;;;;-1.02;66.86;101024.54;108111;1255;73730;-76
2023/01/28 06:58:53;;;;;;;34.20;18.80;;;;;;;-1.01;67.14;101023.39;108067;1256;60635;-75
2023/01/28 07:01:21;;;;;;;39.50;20.30;;;;;;;-1.01;67.08;101024.37;108051;1255;60560;-75
2023/01/28 07:03:48;;;;;;;44.20;23.00;;;;;;;-1.04;66.95;101024.98;108073;1256;72798;-75
2023/01/28 07:06:18;;;;;;;35.50;17.80;;;;;;;-1.08;66.83;101019.43;108109;1254;72816;-75
2023/01/28 07:08:46;;;;;;;43.70;23.50;;;;;;;-1.09;66.91;101015.23;108083;1256;72688;-75
2023/01/28 07:11:14;;;;;;;40.00;20.40;;;;;;;-1.12;66.86;101019.33;108078;1254;59638;-76
2023/01/28 07:13:42;;;;;;;39.30;20.50;;;;;;;-1.12;66.66;101021.59;108150;1256;59615;-75
2023/01/28 07:16:09;;;;;;;41.00;21.60;;;;;;;-1.10;66.87;101025.63;108063;1260;72320;-75
2023/01/28 07:18:36;;;;;;;41.10;21.20;;;;;;;-1.10;66.52;101024.53;108092;1256;74015;-76
2023/01/28 07:21:04;;;;;;;38.80;20.30;;;;;;;-1.14;66.44;101021.73;108175;1257;71758;-75
2023/01/28 07:23:31;;;;;;;42.60;22.50;;;;;;;-1.21;66.26;101024.36;108145;1255;61048;-75
2023/01/28 07:26:02;;;;;;;41.10;22.70;;;;;;;-1.24;66.51;101023.66;108207;1254;60600;-76
2023/01/28 07:28:31;;;;;;;41.30;20.70;;;;;;;-1.23;66.55;101020.91;108094;1256;73087;-74
2023/01/28 07:30:58;;;;;;;37.90;19.50;;;;;;;-1.20;66.57;101024.03;108158;1254;74093;-76
2023/01/28 07:33:25;;;;;;;37.50;19.70;;;;;;;-1.16;66.45;101023.18;108044;1255;72105;-76
2023/01/28 07:35:53;;;;;;;37.70;20.30;;;;;;;-1.16;66.41;101024.23;108039;1256;60296;-74
2023/01/28 07:38:20;;;;;;;40.00;20.90;;;;;;;-1.23;66.66;101023.67;108075;1256;59913;-75
2023/01/28 07:40:47;;;;;;;40.30;20.50;;;;;;;-1.22;66.77;101021.85;108098;1256;73097;-75
2023/01/28 07:43:14;;;;;;;39.50;21.10;;;;;;;-1.22;66.64;101023.42;108184;1256;72909;-75
2023/01/28 07:45:42;;;;;;;37.80;21.10;;;;;;;-1.20;66.82;101026.83;108001;1257;72755;-74
2023/01/28 07:48:10;;;;;;;39.60;21.10;;;;;;;-1.13;66.82;101027.14;108068;1255;61559;-75
2023/01/28 07:50:38;;;;;;;42.50;22.40;;;;;;;-1.06;66.89;101028.50;107987;1258;59721;-74
2023/01/28 07:53:08;;;;;;;41.40;23.20;;;;;;;-1.00;66.84;101028.56;108091;1254;72707;-75
2023/01/28 07:55:36;;;;;;;41.00;22.40;;;;;;;-0.92;66.91;101021.03;108169;1254;73208;-77
2023/01/28 07:58:04;;;;;;;39.20;21.40;;;;;;;-0.83;66.80;101018.48;108192;1259;70820;-74
2023/01/28 08:00:33;;;;;;;41.50;21.40;;;;;;;-0.75;66.54;101018.44;108030;1254;59612;-74
2023/01/28 08:03:02;;;;;;;40.60;22.50;;;;;;;-0.71;66.52;101017.27;108099;1255;60668;-75
2023/01/28 08:05:38;;;;;;;41.10;21.10;;;;;;;-0.67;66.39;101013.11;108130;1258;72680;-75
2023/01/28 08:08:06;;;;;;;39.80;20.90;;;;;;;-0.63;66.07;101016.01;108096;1257;72925;-74
2023/01/28 08:10:33;;;;;;;40.90;22.40;;;;;;;-0.64;65.95;101016.18;108153;1255;71663;-79
2023/01/28 08:13:01;;;;;;;43.50;23.00;;;;;;;-0.66;65.83;101019.51;108088;1254;61617;-75
2023/01/28 08:15:28;;;;;;;41.30;22.00;;;;;;;-0.67;65.87;101022.92;108205;1254;60544;-76
2023/01/28 08:17:56;;;;;;;36.70;22.20;;;;;;;-0.65;65.75;101022.92;108160;1259;72868;-75
2023/01/28 08:20:25;;;;;;;43.10;23.60;;;;;;;-0.65;65.68;101022.20;108232;1254;72542;-76
2023/01/28 08:22:52;;;;;;;43.60;24.60;;;;;;;-0.68;65.51;101024.61;108181;1254;72389;-76
2023/01/28 08:25:19;;;;;;;44.80;23.40;;;;;;;-0.66;65.67;101025.45;108172;1254;60507;-75
2023/01/28 08:27:47;;;;;;;37.10;21.10;;;;;;;-0.62;65.50;101018.70;108105;1256;60505;-75
2023/01/28 08:30:14;;;;;;;39.10;20.40;;;;;;;-0.61;65.42;101015.61;108200;1254;72902;-76
2023/01/28 08:32:41;;;;;;;44.30;22.90;;;;;;;-0.64;65.23;101014.89;108221;1257;73023;-75
2023/01/28 08:35:11;;;;;;;44.10;22.20;;;;;;;-0.71;65.21;101015.11;108211;1259;71868;-76
2023/01/28 08:37:38;;;;;;;41.60;22.40;;;;;;;-0.74;65.20;101009.80;108156;1254;60149;-76
2023/01/28 08:40:06;;;;;;;40.40;21.60;;;;;;;-0.74;65.32;101008.66;108189;1255;60456;-75
2023/01/28 08:42:35;;;;;;;36.50;20.20;;;;;;;-0.72;65.20;101003.85;108187;1259;73249;-75
2023/01/28 08:45:02;;;;;;;33.30;19.60;;;;;;;-0.67;65.40;101002.36;108187;1258;73399;-75
2023/01/28 08:47:29;;;;;;;38.80;21.00;;;;;;;-0.66;65.11;101001.67;108184;1258;73921;-75
2023/01/28 08:50:00;;;;;;;38.50;21.40;;;;;;;-0.67;65.10;100992.48;108163;1255;60605;-76
2023/01/28 08:52:27;;;;;;;32.30;18.40;;;;;;;-0.66;64.98;100993.06;108094;1259;60340;-74
2023/01/28 08:54:54;;;;;;;35.20;20.90;;;;;;;-0.66;65.04;100993.50;108169;1257;73557;-75
2023/01/28 08:57:22;;;;;;;39.60;21.40;;;;;;;-0.62;65.20;100991.77;108134;1255;73280;-75
2023/01/28 08:59:48;;;;;;;37.00;21.10;;;;;;;-0.55;65.04;100993.48;108108;1259;72080;-74
2023/01/28 09:02:16;;;;;;;33.00;18.80;;;;;;;-0.49;65.09;100987.06;108155;1258;60498;-75
2023/01/28 09:04:58;;;;;;;36.70;20.80;;;;;;;-0.44;64.94;100989.85;108017;1255;60368;-74
2023/01/28 09:07:25;;;;;;;41.30;22.00;;;;;;;-0.36;64.78;100990.56;108166;1258;72880;-75
2023/01/28 09:09:51;;;;;;;36.90;19.70;;;;;;;-0.28;64.76;100990.18;108236;1254;72305;-75
2023/01/28 09:12:19;;;;;;;35.60;20.20;;;;;;;-0.26;64.37;100984.49;108176;1254;72714;-75
2023/01/28 09:14:46;;;;;;;41.40;22.00;;;;;;;-0.25;64.12;100981.84;108134;1254;60798;-75
2023/01/28 09:17:14;;;;;;;34.40;18.70;;;;;;;-0.24;64.05;100979.72;108156;1254;60440;-75
2023/01/28 09:19:41;;;;;;;33.50;19.40;;;;;;;-0.25;63.83;100971.86;108211;1254;74021;-75
2023/01/28 09:22:08;;;;;;;36.30;20.90;;;;;;;-0.29;63.77;100966.30;108128;1254;71119;-75
2023/01/28 09:24:35;;;;;;;35.00;20.10;;;;;;;-0.29;63.76;100963.08;108123;1257;72944;-75
2023/01/28 09:27:05;;;;;;;32.80;19.40;;;;;;;-0.27;63.73;100957.98;108120;1255;60536;-76
2023/01/28 09:29:33;;;;;;;32.10;19.40;;;;;;;-0.22;63.55;100951.90;108158;1254;60470;-75
2023/01/28 09:32:00;;;;;;;29.00;17.00;;;;;;;-0.17;63.64;100948.55;108177;1258;73723;-76
2023/01/28 09:34:27;;;;;;;31.20;18.50;;;;;;;-0.16;63.37;100944.78;108140;1258;73322;-75
2023/01/28 09:36:54;;;;;;;30.90;18.00;;;;;;;-0.19;63.07;100943.88;108132;1254;71755;-77
2023/01/28 09:39:23;;;;;;;31.20;17.20;;;;;;;-0.20;63.02;100941.45;108003;1254;62420;-76
2023/01/28 09:42:32;;;;;;;34.60;19.90;;;;;;;-0.15;63.23;100938.46;108151;1255;60942;-75
2023/01/28 09:45:15;;;;;;;30.00;17.90;;;;;;;-0.05;63.01;100934.80;108144;1258;73391;-76
2023/01/28 09:47:49;;;;;;;33.10;19.50;;;;;;;-0.01;62.70;100929.45;108077;1257;72989;-77
2023/01/28 09:50:34;;;;;;;34.90;20.60;;;;;;;0.05;62.59;100931.19;108049;1259;70808;-76
2023/01/28 09:53:24;;;;;;;34.30;21.20;;;;;;;0.10;62.25;100925.69;108106;1255;61036;-76
2023/01/28 09:55:55;;;;;;;34.40;18.70;;;;;;;0.17;62.20;100925.07;108151;1254;60412;-75
2023/01/28 09:58:23;;;;;;;33.00;18.40;;;;;;;0.25;62.00;100927.64;108257;1254;74879;-75
2023/01/28 10:00:59;;;;;;;33.30;18.90;;;;;;;0.34;61.94;100922.64;108427;1254;73569;-78
2023/01/28 10:03:28;;;;;;;32.10;18.90;;;;;;;0.42;61.92;100916.56;108223;1254;72562;-74
2023/01/28 10:06:16;;;;;;;34.40;20.00;;;;;;;0.51;61.59;100913.73;108174;1254;61140;-75
2023/01/28 10:08:51;;;;;;;31.70;19.20;;;;;;;0.63;61.21;100913.33;108141;1254;60352;-75
2023/01/28 10:11:46;;;;;;;29.60;18.00;;;;;;;0.65;60.78;100909.31;108154;1256;73462;-76
2023/01/28 10:14:29;;;;;;;32.50;18.10;;;;;;;0.62;60.48;100913.88;108167;1254;72957;-75
2023/01/28 10:17:02;;;;;;;;;;;;;;;0.61;60.36;100913.79;108143;1254;73719;-76
2023/01/28 10:19:35;;;;;;;29.90;17.90;;;;;;;0.66;60.53;100916.30;108147;1254;61257;-75
2023/01/28 10:22:08;;;;;;;34.10;19.10;;;;;;;0.69;60.11;100916.65;108157;1254;59480;-75
2023/01/28 10:24:45;;;;;;;29.10;17.30;;;;;;;0.68;59.82;100914.48;108038;1254;73450;-75
2023/01/28 10:27:15;;;;;;;29.30;17.20;;;;;;;0.64;59.65;100909.73;108193;1254;73291;-75
2023/01/28 10:29:45;;;;;;;29.40;17.60;;;;;;;0.61;59.56;100905.41;107985;1254;70740;-75
2023/01/28 10:32:18;;;;;;;31.20;18.50;;;;;;;0.65;59.79;100900.45;108117;1255;62048;-75
2023/01/28 10:34:45;;;;;;;28.70;16.90;;;;;;;0.76;59.87;100899.57;108123;1254;60324;-75
2023/01/28 10:37:12;;;;;;;31.90;18.00;;;;;;;0.87;59.76;100898.73;108166;1254;73465;-76
2023/01/28 10:39:41;;;;;;;31.10;18.40;;;;;;;0.97;59.64;100893.84;108055;1254;72777;-76
2023/01/28 10:42:23;;;;;;;26.20;16.50;;;;;;;1.03;59.02;100885.41;108018;1255;72426;-76
2023/01/28 10:44:52;;;;;;;27.50;15.80;;;;;;;1.05;58.46;100884.77;108144;1254;60306;-75
2023/01/28 10:47:28;;;;;;;28.10;16.80;;;;;;;1.09;58.23;100882.27;107995;1254;60568;-76
2023/01/28 10:49:58;;;;;;;29.10;17.80;;;;;;;1.10;58.02;100880.38;108166;1254;75086;-76
2023/01/28 10:52:26;;;;;;;29.30;17.60;;;;;;;1.13;58.14;100876.80;107858;1254;73477;-75
2023/01/28 10:55:01;;;;;;;27.80;17.40;;;;;;;1.19;58.02;100867.38;108033;1254;71919;-76
2023/01/28 10:57:28;;;;;;;29.30;17.40;;;;;;;1.23;57.97;100857.63;108121;1255;60769;-75
2023/01/28 10:59:55;;;;;;;28.30;16.90;;;;;;;1.26;57.69;100858.73;108038;1254;60346;-76
2023/01/28 11:02:31;;;;;;;32.90;18.40;;;;;;;1.25;57.44;100855.75;107988;1260;74379;-76
2023/01/28 11:05:17;;;;;;;27.10;16.50;;;;;;;1.22;57.39;100851.39;108158;1254;72421;-76
2023/01/28 11:07:44;;;;;;;28.90;17.30;;;;;;;1.24;57.25;100850.07;108123;1254;73715;-77
2023/01/28 11:10:26;;;;;;;26.70;16.10;;;;;;;1.27;57.18;100852.98;108157;1254;60508;-75
2023/01/28 11:12:58;;;;;;;26.20;17.00;;;;;;;1.31;57.11;100843.34;108121;1254;60415;-75
2023/01/28 11:15:25;;;;;;;26.10;16.40;;;;;;;1.36;57.11;100844.90;108085;1254;72880;-76
2023/01/28 11:18:05;;;;;;;29.50;18.10;;;;;;;1.43;56.97;100845.70;108128;1254;72012;-75
2023/01/28 11:20:40;;;;;;;28.40;17.30;;;;;;;1.53;56.96;100842.06;108000;1254;71434;-76
2023/01/28 11:23:17;;;;;;;31.40;17.50;;;;;;;1.60;56.67;100839.81;108166;1254;60492;-77
2023/01/28 11:25:46;;;;;;;33.60;19.60;;;;;;;1.62;56.25;100838.45;108008;1254;61452;-75
2023/01/28 11:28:16;;;;;;;35.60;21.40;;;;;;;1.68;56.36;100835.66;108030;1254;73043;-76
2023/01/28 11:30:43;;;;;;;31.90;18.90;;;;;;;1.74;56.06;100832.30;108206;1254;72877;-76
2023/01/28 11:33:18;;;;;;;32.70;18.80;;;;;;;1.78;55.82;100838.30;107834;1258;73098;-75
2023/01/28 11:36:05;;;;;;;36.10;19.90;;;;;;;1.82;55.79;100835.51;107845;1254;60525;-76
2023/01/28 11:38:33;;;;;;;32.60;18.80;;;;;;;1.91;55.93;100837.36;108137;1254;60550;-74
2023/01/28 11:41:00;;;;;;;32.70;20.00;;;;;;;1.98;55.78;100836.42;108026;1254;74074;-76
2023/01/28 11:43:29;;;;;;;31.00;19.30;;;;;;;2.05;55.69;100826.26;108159;1254;71986;-74
2023/01/28 11:46:06;;;;;;;34.60;19.90;;;;;;;2.08;55.48;100821.66;107912;1254;72718;-75
2023/01/28 11:48:36;;;;;;;32.80;19.80;;;;;;;2.09;55.08;100820.77;108178;1254;60318;-75
2023/01/28 11:51:07;;;;;;;31.60;19.70;;;;;;;2.09;54.97;100817.67;108187;1254;60460;-76
2023/01/28 11:53:41;;;;;;;36.00;20.00;;;;;;;2.08;54.86;100815.29;108185;1254;73047;-74
2023/01/28 11:56:14;;;;;;;30.40;19.30;;;;;;;2.12;54.77;100812.02;108141;1254;72744;-78
2023/01/28 11:59:18;;;;;;;30.70;18.20;;;;;;;2.11;54.74;100809.80;108105;1254;73690;-76
2023/01/28 12:02:01;;;;;;;32.30;19.70;;;;;;;2.18;54.65;100810.46;108062;1254;60619;-76
2023/01/28 12:04:45;;;;;;;29.30;17.60;;;;;;;2.26;54.76;100810.23;108138;1254;60426;-76
2023/01/28 12:07:31;;;;;;;29.10;17.20;;;;;;;2.35;54.65;100805.60;108126;1254;74669;-76
2023/01/28 12:10:21;;;;;;;30.10;17.30;;;;;;;2.44;54.57;100806.23;108181;1254;71987;-77
2023/01/28 15:56:12;;;;;;;26.80;17.40;;;;;;;0.11;62.63;100816.92;105768;1282;612230;-66